createdAt,value
2016-08-21T00:00:12.025Z,"  -74"
2016-08-21T00:05:09.685Z,"  -75"
2016-08-21T00:10:07.467Z,"  -75"
2016-08-21T00:15:05.167Z,"  -75"
2016-08-21T00:20:02.855Z,"  -74"
2016-08-21T00:25:01.475Z,"  -75"
2016-08-21T00:29:59.338Z,"  -74"
2016-08-21T00:34:57.019Z,"  -75"
2016-08-21T00:39:54.814Z,"  -75"
2016-08-21T00:44:52.527Z,"  -75"
2016-08-21T00:49:50.254Z,"  -74"
2016-08-21T00:54:47.919Z,"  -74"
2016-08-21T00:59:46.463Z,"  -75"
2016-08-21T01:04:43.897Z,"  -74"
2016-08-21T01:09:43.618Z,"  -73"
2016-08-21T01:14:40.920Z,"  -74"
2016-08-21T01:19:38.757Z,"  -74"
2016-08-21T01:24:36.442Z,"  -75"
2016-08-21T01:29:34.174Z,"  -75"
2016-08-21T01:34:31.988Z,"  -75"
2016-08-21T01:39:29.584Z,"  -75"
2016-08-21T01:44:27.314Z,"  -74"
2016-08-21T01:49:25.199Z,"  -74"
2016-08-21T01:54:22.907Z,"  -74"
2016-08-21T01:59:20.587Z,"  -74"
2016-08-21T02:04:18.341Z,"  -74"
2016-08-21T02:09:16.113Z,"  -74"
2016-08-21T02:14:13.535Z,"  -75"
2016-08-21T02:19:11.165Z,"  -75"
2016-08-21T02:24:08.877Z,"  -75"
2016-08-21T02:29:06.498Z,"  -74"
2016-08-21T02:34:04.255Z,"  -73"
2016-08-21T02:39:02.011Z,"  -74"
2016-08-21T02:43:59.533Z,"  -75"
2016-08-21T02:48:57.314Z,"  -75"
2016-08-21T02:53:55.108Z,"  -74"
2016-08-21T02:58:52.890Z,"  -74"
2016-08-21T03:03:50.617Z,"  -74"
2016-08-21T03:08:48.384Z,"  -74"
2016-08-21T03:13:46.054Z,"  -75"
2016-08-21T03:18:43.904Z,"  -74"
2016-08-21T03:23:41.587Z,"  -74"
2016-08-21T03:28:39.483Z,"  -74"
2016-08-21T03:33:37.106Z,"  -74"
2016-08-21T03:38:34.707Z,"  -74"
2016-08-21T03:43:32.306Z,"  -74"
2016-08-21T03:48:30.069Z,"  -74"
2016-08-21T03:53:27.782Z,"  -74"
2016-08-21T03:58:25.537Z,"  -75"
2016-08-21T04:03:23.314Z,"  -74"
2016-08-21T04:08:20.986Z,"  -75"
2016-08-21T04:13:18.613Z,"  -74"
2016-08-21T04:18:16.347Z,"  -75"
2016-08-21T04:23:14.062Z,"  -74"
2016-08-21T04:28:11.569Z,"  -75"
2016-08-21T04:33:09.238Z,"  -74"
2016-08-21T04:38:07.074Z,"  -75"
2016-08-21T04:43:04.892Z,"  -75"
2016-08-21T04:48:02.711Z,"  -74"
2016-08-21T04:53:00.685Z,"  -74"
2016-08-21T04:57:58.322Z,"  -74"
2016-08-21T05:02:56.034Z,"  -75"
2016-08-21T05:07:53.705Z,"  -74"
2016-08-21T05:12:51.820Z,"  -74"
2016-08-21T05:17:49.403Z,"  -74"
2016-08-21T05:22:47.207Z,"  -74"
2016-08-21T05:27:44.914Z,"  -74"
2016-08-21T05:32:42.709Z,"  -74"
2016-08-21T05:37:40.500Z,"  -74"
2016-08-21T05:42:38.304Z,"  -73"
2016-08-21T05:47:36.070Z,"  -74"
2016-08-21T05:52:34.166Z,"  -74"
2016-08-21T05:57:31.974Z,"  -75"
2016-08-21T06:02:29.728Z,"  -75"
2016-08-21T06:07:27.651Z,"  -75"
2016-08-21T06:12:25.428Z,"  -75"
2016-08-21T06:17:23.029Z,"  -75"
2016-08-21T06:22:20.945Z,"  -75"
2016-08-21T06:27:18.766Z,"  -75"
2016-08-21T06:32:16.538Z,"  -75"
2016-08-21T06:37:14.304Z,"  -75"
2016-08-21T06:42:12.032Z,"  -75"
2016-08-21T06:47:09.741Z,"  -75"
2016-08-21T06:52:07.379Z,"  -75"
2016-08-21T06:57:05.021Z,"  -75"
2016-08-21T07:02:02.720Z,"  -75"
2016-08-21T07:07:00.389Z,"  -74"
2016-08-21T07:11:58.144Z,"  -74"
2016-08-21T07:16:55.862Z,"  -76"
2016-08-21T07:21:53.742Z,"  -75"
2016-08-21T07:26:51.509Z,"  -78"
2016-08-21T07:31:49.267Z,"  -78"
2016-08-21T07:36:47.112Z,"  -78"
2016-08-21T07:41:44.716Z,"  -78"
2016-08-21T07:46:42.304Z,"  -78"
2016-08-21T07:51:39.911Z,"  -78"
2016-08-21T07:56:37.789Z,"  -77"
2016-08-21T08:01:35.304Z,"  -72"
2016-08-21T08:06:32.942Z,"  -75"
2016-08-21T08:11:30.846Z,"  -76"
2016-08-21T08:16:28.797Z,"  -75"
2016-08-21T08:21:26.519Z,"  -75"
2016-08-21T08:26:24.310Z,"  -75"
2016-08-21T08:31:22.034Z,"  -76"
2016-08-21T08:36:19.754Z,"  -75"
2016-08-21T08:41:17.418Z,"  -75"
2016-08-21T08:46:15.159Z,"  -74"
2016-08-21T08:51:12.853Z,"  -76"
2016-08-21T08:56:10.833Z,"  -75"
2016-08-21T09:01:08.598Z,"  -75"
2016-08-21T09:06:06.134Z,"  -75"
2016-08-21T09:11:03.741Z,"  -75"
2016-08-21T09:16:01.414Z,"  -76"
2016-08-21T09:20:59.175Z,"  -75"
2016-08-21T09:25:56.685Z,"  -75"
2016-08-21T09:30:54.413Z,"  -74"
2016-08-21T09:35:52.110Z,"  -75"
2016-08-21T09:40:49.763Z,"  -75"
2016-08-21T09:45:47.295Z,"  -76"
2016-08-21T09:50:45.011Z,"  -75"
2016-08-21T09:55:42.603Z,"  -75"
2016-08-21T10:00:40.991Z,"  -76"
2016-08-21T10:05:38.495Z,"  -74"
2016-08-21T10:10:36.197Z,"  -76"
2016-08-21T10:15:33.863Z,"  -75"
2016-08-21T10:20:31.500Z,"  -75"
2016-08-21T10:25:29.230Z,"  -75"
2016-08-21T10:30:26.847Z,"  -75"
2016-08-21T10:35:24.642Z,"  -75"
2016-08-21T10:40:22.264Z,"  -76"
2016-08-21T10:45:19.839Z,"  -75"
2016-08-21T10:50:17.500Z,"  -75"
2016-08-21T10:55:15.208Z,"  -76"
2016-08-21T11:00:12.988Z,"  -76"
2016-08-21T11:05:10.814Z,"  -75"
2016-08-21T11:10:08.425Z,"  -76"
2016-08-21T11:15:06.126Z,"  -75"
2016-08-21T11:20:03.666Z,"  -75"
2016-08-21T11:25:01.464Z,"  -75"
2016-08-21T11:29:59.178Z,"  -75"
2016-08-21T11:34:56.689Z,"  -74"
2016-08-21T11:39:54.174Z,"  -75"
2016-08-21T11:44:51.924Z,"  -73"
2016-08-21T11:49:49.480Z,"  -74"
2016-08-21T11:54:47.281Z,"  -72"
2016-08-21T11:59:45.009Z,"  -74"
2016-08-21T12:04:42.866Z,"  -74"
2016-08-21T12:09:40.566Z,"  -73"
2016-08-21T12:14:38.265Z,"  -74"
2016-08-21T12:19:36.043Z,"  -74"
2016-08-21T12:24:33.863Z,"  -74"
2016-08-21T12:29:31.400Z,"  -75"
2016-08-21T12:34:28.967Z,"  -75"
2016-08-21T12:39:26.641Z,"  -73"
2016-08-21T12:44:24.410Z,"  -73"
2016-08-21T12:49:21.810Z,"  -74"
2016-08-21T12:54:19.453Z,"  -74"
2016-08-21T12:59:17.299Z,"  -74"
2016-08-21T13:04:14.714Z,"  -75"
2016-08-21T13:09:12.330Z,"  -74"
2016-08-21T13:14:09.977Z,"  -74"
2016-08-21T13:19:07.741Z,"  -75"
2016-08-21T13:24:05.418Z,"  -74"
2016-08-21T13:29:02.887Z,"  -75"
2016-08-21T13:34:00.720Z,"  -75"
2016-08-21T13:38:58.484Z,"  -74"
2016-08-21T13:43:56.025Z,"  -75"
2016-08-21T13:48:53.675Z,"  -74"
2016-08-21T13:53:51.175Z,"  -74"
2016-08-21T13:58:48.817Z,"  -74"
2016-08-21T14:03:46.424Z,"  -74"
2016-08-21T14:08:44.028Z,"  -74"
2016-08-21T14:13:41.700Z,"  -75"
2016-08-21T14:18:39.350Z,"  -75"
2016-08-21T14:23:37.044Z,"  -74"
2016-08-21T14:28:34.778Z,"  -73"
2016-08-21T14:33:32.430Z,"  -74"
2016-08-21T14:38:29.979Z,"  -73"
2016-08-21T14:43:27.468Z,"  -74"
2016-08-21T14:48:25.317Z,"  -73"
2016-08-21T14:53:22.928Z,"  -73"
2016-08-21T14:58:20.480Z,"  -72"
2016-08-21T15:03:18.231Z,"  -71"
2016-08-21T15:08:15.728Z,"  -74"
2016-08-21T15:13:13.228Z,"  -74"
2016-08-21T15:18:10.970Z,"  -73"
2016-08-21T15:23:08.705Z,"  -73"
2016-08-21T15:28:06.391Z,"  -74"
2016-08-21T15:33:05.026Z,"  -75"
2016-08-21T15:38:02.692Z,"  -73"
2016-08-21T15:43:00.190Z,"  -73"
2016-08-21T15:47:57.846Z,"  -73"
2016-08-21T15:52:55.461Z,"  -74"
2016-08-21T15:57:52.958Z,"  -75"
2016-08-21T16:02:50.755Z,"  -73"
2016-08-21T16:07:48.177Z,"  -74"
2016-08-21T16:12:45.844Z,"  -75"
2016-08-21T16:17:43.348Z,"  -74"
2016-08-21T16:22:40.982Z,"  -74"
2016-08-21T16:27:38.742Z,"  -74"
2016-08-21T16:32:36.361Z,"  -73"
2016-08-21T16:37:34.004Z,"  -73"
2016-08-21T16:42:31.552Z,"  -74"
2016-08-21T16:47:29.136Z,"  -73"
2016-08-21T16:52:26.786Z,"  -75"
2016-08-21T16:57:24.406Z,"  -74"
2016-08-21T17:02:22.007Z,"  -75"
2016-08-21T17:07:19.618Z,"  -75"
2016-08-21T17:12:17.352Z,"  -72"
2016-08-21T17:17:14.809Z,"  -74"
2016-08-21T17:22:12.405Z,"  -73"
2016-08-21T17:27:10.133Z,"  -75"
2016-08-21T17:32:09.249Z,"  -74"
2016-08-21T17:37:06.466Z,"  -73"
2016-08-21T17:42:04.312Z,"  -74"
2016-08-21T17:47:01.895Z,"  -74"
2016-08-21T17:51:59.568Z,"  -74"
2016-08-21T17:56:57.319Z,"  -75"
2016-08-21T18:01:54.890Z,"  -74"
2016-08-21T18:06:52.632Z,"  -75"
2016-08-21T18:11:50.124Z,"  -75"
2016-08-21T18:16:48.600Z,"  -76"
2016-08-21T18:21:46.030Z,"  -75"
2016-08-21T18:26:43.988Z,"  -77"
2016-08-21T18:31:41.788Z,"  -74"
2016-08-21T18:36:39.378Z,"  -76"
2016-08-21T18:41:37.051Z,"  -75"
2016-08-21T18:46:34.806Z,"  -76"
2016-08-21T18:51:32.461Z,"  -76"
2016-08-21T18:56:30.022Z,"  -76"
2016-08-21T19:01:27.649Z,"  -77"
2016-08-21T19:06:25.225Z,"  -75"
2016-08-21T19:11:23.354Z,"  -76"
2016-08-21T19:16:20.749Z,"  -75"
2016-08-21T19:21:18.401Z,"  -79"
2016-08-21T19:26:16.528Z,"  -82"
2016-08-21T19:31:13.865Z,"  -82"
2016-08-21T19:36:11.503Z,"  -77"
2016-08-21T19:41:09.379Z,"  -79"
2016-08-21T19:46:07.116Z,"  -80"
2016-08-21T19:51:04.858Z,"  -79"
2016-08-21T19:56:02.463Z,"  -78"
2016-08-21T20:01:00.091Z,"  -78"
2016-08-21T20:05:57.852Z,"  -76"
2016-08-21T20:10:55.537Z,"  -76"
2016-08-21T20:15:53.125Z,"  -79"
2016-08-21T20:20:50.722Z,"  -81"
2016-08-21T20:25:48.306Z,"  -81"
2016-08-21T20:30:45.998Z,"  -77"
2016-08-21T20:35:43.770Z,"  -77"
2016-08-21T20:40:41.354Z,"  -77"
2016-08-21T20:45:39.296Z,"  -76"
2016-08-21T20:50:36.843Z,"  -76"
2016-08-21T20:55:34.512Z,"  -76"
2016-08-21T21:00:32.305Z,"  -78"
2016-08-21T21:05:30.576Z,"  -80"
2016-08-21T21:10:27.995Z,"  -75"
2016-08-21T21:15:25.749Z,"  -76"
2016-08-21T21:20:23.367Z,"  -74"
2016-08-21T21:25:21.086Z,"  -75"
2016-08-21T21:30:18.768Z,"  -75"
2016-08-21T21:35:16.443Z,"  -75"
2016-08-21T21:40:14.194Z,"  -74"
2016-08-21T21:45:11.861Z,"  -79"
2016-08-21T21:50:09.745Z,"  -75"
2016-08-21T21:55:07.384Z,"  -75"
2016-08-21T22:00:05.184Z,"  -74"
2016-08-21T22:05:02.822Z,"  -77"
2016-08-21T22:10:00.396Z,"  -80"
2016-08-21T22:14:57.988Z,"  -75"
2016-08-21T22:19:55.667Z,"  -73"
2016-08-21T22:24:53.345Z,"  -75"
2016-08-21T22:29:51.038Z,"  -75"
2016-08-21T22:34:48.668Z,"  -74"
2016-08-21T22:39:46.215Z,"  -75"
2016-08-21T22:44:43.908Z,"  -75"
2016-08-21T22:49:41.516Z,"  -74"
2016-08-21T22:54:39.135Z,"  -75"
2016-08-21T22:59:36.846Z,"  -74"
2016-08-21T23:04:34.423Z,"  -74"
2016-08-21T23:09:32.206Z,"  -74"
2016-08-21T23:14:29.910Z,"  -73"
2016-08-21T23:19:27.562Z,"  -73"
2016-08-21T23:24:25.328Z,"  -73"
2016-08-21T23:29:22.882Z,"  -74"
2016-08-21T23:34:20.522Z,"  -77"
2016-08-21T23:39:18.178Z,"  -73"
2016-08-21T23:44:15.924Z,"  -74"
2016-08-21T23:49:13.506Z,"  -73"
2016-08-21T23:54:11.220Z,"  -75"
2016-08-21T23:59:09.037Z,"  -74"
